sensor_id;sensor_type;location;lat;lon;timestamp;P1;durP1;ratioP1;P2;durP2;ratioP2
65583;SDS011;70321;43.592;1.456;2023-09-18T00:00:54;1.85;;;1.00;;
65583;SDS011;70321;43.592;1.456;2023-09-18T00:03:23;6.78;;;1.23;;
65583;SDS011;70321;43.592;1.456;2023-09-18T00:05:52;2.38;;;1.10;;
65583;SDS011;70321;43.592;1.456;2023-09-18T00:08:19;2.05;;;0.98;;
65583;SDS011;70321;43.592;1.456;2023-09-18T00:10:51;2.72;;;1.08;;
65583;SDS011;70321;43.592;1.456;2023-09-18T00:13:20;3.17;;;1.00;;
65583;SDS011;70321;43.592;1.456;2023-09-18T00:15:47;5.38;;;1.20;;
65583;SDS011;70321;43.592;1.456;2023-09-18T00:18:15;3.55;;;1.13;;
65583;SDS011;70321;43.592;1.456;2023-09-18T00:20:42;2.60;;;1.05;;
65583;SDS011;70321;43.592;1.456;2023-09-18T00:23:09;1.90;;;0.82;;
65583;SDS011;70321;43.592;1.456;2023-09-18T00:25:36;4.22;;;1.08;;
65583;SDS011;70321;43.592;1.456;2023-09-18T00:28:03;3.83;;;1.00;;
65583;SDS011;70321;43.592;1.456;2023-09-18T00:30:30;3.05;;;1.00;;
65583;SDS011;70321;43.592;1.456;2023-09-18T00:32:57;1.67;;;0.90;;
65583;SDS011;70321;43.592;1.456;2023-09-18T00:35:24;4.68;;;1.00;;
65583;SDS011;70321;43.592;1.456;2023-09-18T00:37:51;3.22;;;0.82;;
65583;SDS011;70321;43.592;1.456;2023-09-18T00:40:18;2.55;;;0.80;;
65583;SDS011;70321;43.592;1.456;2023-09-18T00:42:45;2.33;;;1.00;;
65583;SDS011;70321;43.592;1.456;2023-09-18T00:45:12;3.22;;;0.95;;
65583;SDS011;70321;43.592;1.456;2023-09-18T00:47:38;2.83;;;0.90;;
65583;SDS011;70321;43.592;1.456;2023-09-18T00:50:08;2.78;;;1.10;;
65583;SDS011;70321;43.592;1.456;2023-09-18T00:52:38;1.50;;;0.90;;
65583;SDS011;70321;43.592;1.456;2023-09-18T00:55:05;2.92;;;0.95;;
65583;SDS011;70321;43.592;1.456;2023-09-18T00:57:33;3.15;;;0.98;;
65583;SDS011;70321;43.592;1.456;2023-09-18T01:00:01;2.03;;;1.00;;
65583;SDS011;70321;43.592;1.456;2023-09-18T01:02:30;2.75;;;0.90;;
65583;SDS011;70321;43.592;1.456;2023-09-18T01:04:57;2.40;;;0.90;;
65583;SDS011;70321;43.592;1.456;2023-09-18T01:07:24;1.58;;;0.73;;
65583;SDS011;70321;43.592;1.456;2023-09-18T01:09:55;4.78;;;1.35;;
65583;SDS011;70321;43.592;1.456;2023-09-18T01:17:35;3.53;;;1.15;;
65583;SDS011;70321;43.592;1.456;2023-09-18T01:20:05;2.80;;;1.08;;
65583;SDS011;70321;43.592;1.456;2023-09-18T01:22:35;4.45;;;0.90;;
65583;SDS011;70321;43.592;1.456;2023-09-18T01:25:01;2.03;;;0.90;;
65583;SDS011;70321;43.592;1.456;2023-09-18T01:27:28;1.52;;;0.90;;
65583;SDS011;70321;43.592;1.456;2023-09-18T01:29:55;2.17;;;0.90;;
65583;SDS011;70321;43.592;1.456;2023-09-18T01:32:23;7.75;;;1.20;;
65583;SDS011;70321;43.592;1.456;2023-09-18T01:34:54;2.25;;;0.95;;
65583;SDS011;70321;43.592;1.456;2023-09-18T01:37:31;3.33;;;1.10;;
65583;SDS011;70321;43.592;1.456;2023-09-18T01:39:59;6.63;;;1.05;;
65583;SDS011;70321;43.592;1.456;2023-09-18T01:42:26;3.70;;;1.13;;
65583;SDS011;70321;43.592;1.456;2023-09-18T01:44:54;1.60;;;0.95;;
65583;SDS011;70321;43.592;1.456;2023-09-18T01:47:21;3.65;;;1.10;;
65583;SDS011;70321;43.592;1.456;2023-09-18T01:49:55;3.63;;;1.02;;
65583;SDS011;70321;43.592;1.456;2023-09-18T01:52:22;2.83;;;1.00;;
65583;SDS011;70321;43.592;1.456;2023-09-18T01:54:48;2.42;;;1.00;;
65583;SDS011;70321;43.592;1.456;2023-09-18T01:57:15;3.65;;;1.08;;
65583;SDS011;70321;43.592;1.456;2023-09-18T01:59:42;2.65;;;0.93;;
65583;SDS011;70321;43.592;1.456;2023-09-18T02:02:10;2.45;;;1.20;;
65583;SDS011;70321;43.592;1.456;2023-09-18T02:04:47;1.17;;;0.80;;
65583;SDS011;70321;43.592;1.456;2023-09-18T02:07:34;3.33;;;1.20;;
65583;SDS011;70321;43.592;1.456;2023-09-18T02:10:01;2.90;;;1.08;;
65583;SDS011;70321;43.592;1.456;2023-09-18T02:12:29;3.25;;;1.00;;
65583;SDS011;70321;43.592;1.456;2023-09-18T02:14:56;2.28;;;0.90;;
65583;SDS011;70321;43.592;1.456;2023-09-18T02:17:25;1.70;;;0.98;;
65583;SDS011;70321;43.592;1.456;2023-09-18T02:19:52;1.58;;;0.85;;
65583;SDS011;70321;43.592;1.456;2023-09-18T02:22:18;2.78;;;0.95;;
65583;SDS011;70321;43.592;1.456;2023-09-18T02:24:45;1.48;;;0.88;;
65583;SDS011;70321;43.592;1.456;2023-09-18T02:27:12;2.72;;;0.98;;
65583;SDS011;70321;43.592;1.456;2023-09-18T02:29:40;3.17;;;0.95;;
65583;SDS011;70321;43.592;1.456;2023-09-18T02:32:07;2.35;;;0.90;;
65583;SDS011;70321;43.592;1.456;2023-09-18T02:34:34;3.88;;;1.10;;
65583;SDS011;70321;43.592;1.456;2023-09-18T02:37:00;1.95;;;0.93;;
65583;SDS011;70321;43.592;1.456;2023-09-18T02:39:27;2.15;;;0.82;;
65583;SDS011;70321;43.592;1.456;2023-09-18T02:41:54;2.35;;;0.80;;
65583;SDS011;70321;43.592;1.456;2023-09-18T02:44:20;3.83;;;1.10;;
65583;SDS011;70321;43.592;1.456;2023-09-18T02:46:47;4.40;;;0.90;;
65583;SDS011;70321;43.592;1.456;2023-09-18T02:49:14;2.40;;;1.10;;
65583;SDS011;70321;43.592;1.456;2023-09-18T02:51:41;2.28;;;0.75;;
65583;SDS011;70321;43.592;1.456;2023-09-18T02:54:07;2.15;;;0.90;;
65583;SDS011;70321;43.592;1.456;2023-09-18T02:56:34;1.65;;;0.80;;
65583;SDS011;70321;43.592;1.456;2023-09-18T02:59:01;1.73;;;0.90;;
65583;SDS011;70321;43.592;1.456;2023-09-18T03:01:27;1.63;;;0.82;;
65583;SDS011;70321;43.592;1.456;2023-09-18T03:03:54;3.38;;;0.95;;
65583;SDS011;70321;43.592;1.456;2023-09-18T03:06:21;1.77;;;0.93;;
65583;SDS011;70321;43.592;1.456;2023-09-18T03:08:48;2.33;;;0.80;;
65583;SDS011;70321;43.592;1.456;2023-09-18T03:11:15;2.38;;;0.88;;
65583;SDS011;70321;43.592;1.456;2023-09-18T03:13:44;1.65;;;0.85;;
65583;SDS011;70321;43.592;1.456;2023-09-18T03:16:13;1.67;;;0.80;;
65583;SDS011;70321;43.592;1.456;2023-09-18T03:18:41;3.15;;;1.05;;
65583;SDS011;70321;43.592;1.456;2023-09-18T03:21:07;2.65;;;1.13;;
65583;SDS011;70321;43.592;1.456;2023-09-18T03:23:34;2.05;;;0.90;;
65583;SDS011;70321;43.592;1.456;2023-09-18T03:26:01;2.00;;;1.10;;
65583;SDS011;70321;43.592;1.456;2023-09-18T03:28:29;3.60;;;1.00;;
65583;SDS011;70321;43.592;1.456;2023-09-18T03:30:56;3.33;;;1.35;;
65583;SDS011;70321;43.592;1.456;2023-09-18T03:33:24;5.60;;;1.50;;
65583;SDS011;70321;43.592;1.456;2023-09-18T03:35:51;14.38;;;9.98;;
65583;SDS011;70321;43.592;1.456;2023-09-18T03:38:21;6.95;;;3.97;;
65583;SDS011;70321;43.592;1.456;2023-09-18T03:40:48;8.57;;;5.43;;
65583;SDS011;70321;43.592;1.456;2023-09-18T03:43:15;10.15;;;5.53;;
65583;SDS011;70321;43.592;1.456;2023-09-18T03:45:44;7.00;;;4.68;;
65583;SDS011;70321;43.592;1.456;2023-09-18T03:48:11;12.10;;;4.97;;
65583;SDS011;70321;43.592;1.456;2023-09-18T03:50:38;5.82;;;3.70;;
65583;SDS011;70321;43.592;1.456;2023-09-18T03:53:06;7.63;;;4.93;;
65583;SDS011;70321;43.592;1.456;2023-09-18T03:55:33;9.30;;;6.28;;
65583;SDS011;70321;43.592;1.456;2023-09-18T03:58:00;9.30;;;6.15;;
65583;SDS011;70321;43.592;1.456;2023-09-18T04:00:27;9.15;;;5.43;;
65583;SDS011;70321;43.592;1.456;2023-09-18T04:02:53;5.95;;;3.35;;
65583;SDS011;70321;43.592;1.456;2023-09-18T04:05:20;4.45;;;3.00;;
65583;SDS011;70321;43.592;1.456;2023-09-18T04:07:47;6.30;;;3.08;;
65583;SDS011;70321;43.592;1.456;2023-09-18T04:10:14;6.05;;;2.67;;
65583;SDS011;70321;43.592;1.456;2023-09-18T04:12:46;4.95;;;3.08;;
65583;SDS011;70321;43.592;1.456;2023-09-18T04:15:14;9.55;;;3.58;;
65583;SDS011;70321;43.592;1.456;2023-09-18T04:17:41;5.18;;;3.30;;
65583;SDS011;70321;43.592;1.456;2023-09-18T04:20:08;4.65;;;2.72;;
65583;SDS011;70321;43.592;1.456;2023-09-18T04:22:36;7.40;;;2.78;;
65583;SDS011;70321;43.592;1.456;2023-09-18T04:25:03;4.07;;;2.08;;
65583;SDS011;70321;43.592;1.456;2023-09-18T04:27:31;3.47;;;1.85;;
65583;SDS011;70321;43.592;1.456;2023-09-18T04:29:58;3.63;;;2.05;;
65583;SDS011;70321;43.592;1.456;2023-09-18T04:32:27;6.47;;;1.83;;
65583;SDS011;70321;43.592;1.456;2023-09-18T04:34:54;4.43;;;1.80;;
65583;SDS011;70321;43.592;1.456;2023-09-18T04:37:21;6.78;;;2.00;;
65583;SDS011;70321;43.592;1.456;2023-09-18T04:39:48;4.72;;;1.85;;
65583;SDS011;70321;43.592;1.456;2023-09-18T04:42:14;4.70;;;1.75;;
65583;SDS011;70321;43.592;1.456;2023-09-18T04:44:41;4.78;;;1.80;;
65583;SDS011;70321;43.592;1.456;2023-09-18T04:47:08;3.53;;;1.58;;
65583;SDS011;70321;43.592;1.456;2023-09-18T04:49:35;5.53;;;1.63;;
65583;SDS011;70321;43.592;1.456;2023-09-18T04:52:02;3.45;;;1.52;;
65583;SDS011;70321;43.592;1.456;2023-09-18T04:54:28;4.03;;;1.75;;
65583;SDS011;70321;43.592;1.456;2023-09-18T04:56:55;4.13;;;1.73;;
65583;SDS011;70321;43.592;1.456;2023-09-18T04:59:22;4.45;;;2.00;;
65583;SDS011;70321;43.592;1.456;2023-09-18T05:01:49;4.63;;;1.80;;
65583;SDS011;70321;43.592;1.456;2023-09-18T05:04:15;5.22;;;1.80;;
65583;SDS011;70321;43.592;1.456;2023-09-18T05:06:42;2.20;;;1.38;;
65583;SDS011;70321;43.592;1.456;2023-09-18T05:09:09;2.92;;;1.35;;
65583;SDS011;70321;43.592;1.456;2023-09-18T05:11:36;5.40;;;1.98;;
65583;SDS011;70321;43.592;1.456;2023-09-18T05:14:02;6.32;;;1.63;;
65583;SDS011;70321;43.592;1.456;2023-09-18T05:16:29;3.28;;;1.50;;
65583;SDS011;70321;43.592;1.456;2023-09-18T05:18:58;2.88;;;1.60;;
65583;SDS011;70321;43.592;1.456;2023-09-18T05:21:26;5.68;;;1.90;;
65583;SDS011;70321;43.592;1.456;2023-09-18T05:23:53;5.50;;;2.17;;
65583;SDS011;70321;43.592;1.456;2023-09-18T05:26:20;8.05;;;2.00;;
65583;SDS011;70321;43.592;1.456;2023-09-18T05:28:49;4.77;;;1.70;;
65583;SDS011;70321;43.592;1.456;2023-09-18T05:31:17;3.63;;;1.70;;
65583;SDS011;70321;43.592;1.456;2023-09-18T05:33:44;3.97;;;1.70;;
65583;SDS011;70321;43.592;1.456;2023-09-18T05:36:12;5.88;;;1.77;;
65583;SDS011;70321;43.592;1.456;2023-09-18T05:38:41;4.80;;;1.60;;
65583;SDS011;70321;43.592;1.456;2023-09-18T05:41:09;7.22;;;1.80;;
65583;SDS011;70321;43.592;1.456;2023-09-18T05:43:36;5.03;;;1.65;;
65583;SDS011;70321;43.592;1.456;2023-09-18T05:46:03;3.33;;;1.52;;
65583;SDS011;70321;43.592;1.456;2023-09-18T05:48:29;5.10;;;1.70;;
65583;SDS011;70321;43.592;1.456;2023-09-18T05:50:57;5.47;;;1.83;;
65583;SDS011;70321;43.592;1.456;2023-09-18T05:53:24;3.55;;;1.38;;
65583;SDS011;70321;43.592;1.456;2023-09-18T05:55:51;3.72;;;1.60;;
65583;SDS011;70321;43.592;1.456;2023-09-18T05:58:18;2.67;;;1.48;;
65583;SDS011;70321;43.592;1.456;2023-09-18T06:00:48;6.82;;;1.83;;
65583;SDS011;70321;43.592;1.456;2023-09-18T06:03:16;5.80;;;2.75;;
65583;SDS011;70321;43.592;1.456;2023-09-18T06:05:45;10.43;;;3.22;;
65583;SDS011;70321;43.592;1.456;2023-09-18T06:08:13;7.97;;;2.53;;
65583;SDS011;70321;43.592;1.456;2023-09-18T06:10:41;5.07;;;2.38;;
65583;SDS011;70321;43.592;1.456;2023-09-18T06:13:08;7.60;;;2.72;;
65583;SDS011;70321;43.592;1.456;2023-09-18T06:15:35;6.18;;;2.70;;
65583;SDS011;70321;43.592;1.456;2023-09-18T06:18:02;6.28;;;2.90;;
65583;SDS011;70321;43.592;1.456;2023-09-18T06:20:30;5.45;;;2.40;;
65583;SDS011;70321;43.592;1.456;2023-09-18T06:22:57;5.25;;;2.40;;
65583;SDS011;70321;43.592;1.456;2023-09-18T06:25:23;4.53;;;2.42;;
65583;SDS011;70321;43.592;1.456;2023-09-18T06:27:50;6.88;;;2.30;;
65583;SDS011;70321;43.592;1.456;2023-09-18T06:30:17;8.27;;;2.72;;
65583;SDS011;70321;43.592;1.456;2023-09-18T06:32:44;6.50;;;2.42;;
65583;SDS011;70321;43.592;1.456;2023-09-18T06:35:11;7.72;;;2.75;;
65583;SDS011;70321;43.592;1.456;2023-09-18T06:37:38;5.90;;;2.42;;
65583;SDS011;70321;43.592;1.456;2023-09-18T06:40:05;5.53;;;2.50;;
65583;SDS011;70321;43.592;1.456;2023-09-18T06:42:32;7.18;;;3.28;;
65583;SDS011;70321;43.592;1.456;2023-09-18T06:44:59;5.40;;;2.60;;
65583;SDS011;70321;43.592;1.456;2023-09-18T06:47:27;5.20;;;2.40;;
65583;SDS011;70321;43.592;1.456;2023-09-18T06:49:54;6.25;;;2.88;;
65583;SDS011;70321;43.592;1.456;2023-09-18T06:52:21;10.52;;;2.85;;
65583;SDS011;70321;43.592;1.456;2023-09-18T06:54:48;5.95;;;2.50;;
65583;SDS011;70321;43.592;1.456;2023-09-18T06:57:14;5.35;;;2.83;;
65583;SDS011;70321;43.592;1.456;2023-09-18T06:59:41;8.95;;;3.15;;
65583;SDS011;70321;43.592;1.456;2023-09-18T07:02:08;7.45;;;3.30;;
65583;SDS011;70321;43.592;1.456;2023-09-18T07:04:35;8.93;;;3.20;;
65583;SDS011;70321;43.592;1.456;2023-09-18T07:07:01;8.05;;;3.35;;
65583;SDS011;70321;43.592;1.456;2023-09-18T07:09:28;11.23;;;3.55;;
65583;SDS011;70321;43.592;1.456;2023-09-18T07:11:55;7.60;;;3.20;;
65583;SDS011;70321;43.592;1.456;2023-09-18T07:14:22;13.35;;;3.50;;
65583;SDS011;70321;43.592;1.456;2023-09-18T07:16:48;9.93;;;3.60;;
65583;SDS011;70321;43.592;1.456;2023-09-18T07:19:15;14.43;;;4.32;;
65583;SDS011;70321;43.592;1.456;2023-09-18T07:21:45;11.18;;;4.22;;
65583;SDS011;70321;43.592;1.456;2023-09-18T07:24:12;9.32;;;3.78;;
65583;SDS011;70321;43.592;1.456;2023-09-18T07:26:47;12.63;;;4.85;;
65583;SDS011;70321;43.592;1.456;2023-09-18T07:29:14;11.38;;;4.43;;
65583;SDS011;70321;43.592;1.456;2023-09-18T07:31:42;8.23;;;3.47;;
65583;SDS011;70321;43.592;1.456;2023-09-18T07:34:10;19.30;;;5.05;;
65583;SDS011;70321;43.592;1.456;2023-09-18T07:36:39;14.93;;;4.20;;
65583;SDS011;70321;43.592;1.456;2023-09-18T07:39:06;6.38;;;3.10;;
65583;SDS011;70321;43.592;1.456;2023-09-18T07:41:33;15.32;;;5.03;;
65583;SDS011;70321;43.592;1.456;2023-09-18T07:44:00;13.48;;;4.53;;
65583;SDS011;70321;43.592;1.456;2023-09-18T07:46:26;11.15;;;3.80;;
65583;SDS011;70321;43.592;1.456;2023-09-18T07:48:53;11.02;;;4.30;;
65583;SDS011;70321;43.592;1.456;2023-09-18T07:51:20;7.18;;;3.50;;
65583;SDS011;70321;43.592;1.456;2023-09-18T07:53:47;11.15;;;4.38;;
65583;SDS011;70321;43.592;1.456;2023-09-18T07:56:14;8.45;;;4.05;;
65583;SDS011;70321;43.592;1.456;2023-09-18T07:58:41;5.65;;;3.03;;
65583;SDS011;70321;43.592;1.456;2023-09-18T08:01:08;11.90;;;4.80;;
65583;SDS011;70321;43.592;1.456;2023-09-18T08:03:36;9.52;;;4.25;;
65583;SDS011;70321;43.592;1.456;2023-09-18T08:06:03;9.77;;;3.78;;
65583;SDS011;70321;43.592;1.456;2023-09-18T08:08:31;7.22;;;3.50;;
65583;SDS011;70321;43.592;1.456;2023-09-18T08:11:04;8.73;;;3.58;;
65583;SDS011;70321;43.592;1.456;2023-09-18T08:13:35;8.27;;;3.80;;
65583;SDS011;70321;43.592;1.456;2023-09-18T08:16:05;11.75;;;4.43;;
65583;SDS011;70321;43.592;1.456;2023-09-18T08:20:59;7.97;;;3.33;;
65583;SDS011;70321;43.592;1.456;2023-09-18T08:23:26;10.85;;;4.47;;
65583;SDS011;70321;43.592;1.456;2023-09-18T08:25:54;10.27;;;4.32;;
65583;SDS011;70321;43.592;1.456;2023-09-18T08:28:23;9.13;;;3.70;;
65583;SDS011;70321;43.592;1.456;2023-09-18T08:30:50;10.40;;;4.13;;
65583;SDS011;70321;43.592;1.456;2023-09-18T08:33:17;9.98;;;3.78;;
65583;SDS011;70321;43.592;1.456;2023-09-18T08:35:43;9.05;;;3.97;;
65583;SDS011;70321;43.592;1.456;2023-09-18T08:38:10;9.55;;;4.10;;
65583;SDS011;70321;43.592;1.456;2023-09-18T08:40:37;10.48;;;4.32;;
65583;SDS011;70321;43.592;1.456;2023-09-18T08:43:07;6.00;;;3.33;;
65583;SDS011;70321;43.592;1.456;2023-09-18T08:48:30;6.78;;;3.33;;
65583;SDS011;70321;43.592;1.456;2023-09-18T08:51:04;6.40;;;3.22;;
65583;SDS011;70321;43.592;1.456;2023-09-18T08:53:32;10.32;;;3.78;;
65583;SDS011;70321;43.592;1.456;2023-09-18T08:56:00;8.73;;;3.67;;
65583;SDS011;70321;43.592;1.456;2023-09-18T08:58:31;8.30;;;4.47;;
65583;SDS011;70321;43.592;1.456;2023-09-18T09:01:02;11.73;;;4.50;;
65583;SDS011;70321;43.592;1.456;2023-09-18T09:03:30;7.20;;;3.78;;
65583;SDS011;70321;43.592;1.456;2023-09-18T09:05:57;7.25;;;4.07;;
65583;SDS011;70321;43.592;1.456;2023-09-18T09:08:27;8.00;;;4.10;;
65583;SDS011;70321;43.592;1.456;2023-09-18T09:10:55;10.07;;;3.65;;
65583;SDS011;70321;43.592;1.456;2023-09-18T09:13:24;9.73;;;3.45;;
65583;SDS011;70321;43.592;1.456;2023-09-18T09:16:06;7.60;;;3.10;;
65583;SDS011;70321;43.592;1.456;2023-09-18T09:18:46;8.95;;;3.92;;
65583;SDS011;70321;43.592;1.456;2023-09-18T09:21:14;8.68;;;3.25;;
65583;SDS011;70321;43.592;1.456;2023-09-18T09:23:45;10.13;;;3.20;;
65583;SDS011;70321;43.592;1.456;2023-09-18T09:26:21;6.00;;;2.90;;
65583;SDS011;70321;43.592;1.456;2023-09-18T09:28:49;8.65;;;3.22;;
65583;SDS011;70321;43.592;1.456;2023-09-18T09:31:29;6.35;;;3.10;;
65583;SDS011;70321;43.592;1.456;2023-09-18T09:33:57;8.35;;;3.35;;
65583;SDS011;70321;43.592;1.456;2023-09-18T09:36:25;9.38;;;2.88;;
65583;SDS011;70321;43.592;1.456;2023-09-18T09:38:58;6.65;;;2.90;;
65583;SDS011;70321;43.592;1.456;2023-09-18T09:41:26;7.43;;;3.08;;
65583;SDS011;70321;43.592;1.456;2023-09-18T09:43:54;9.45;;;3.38;;
65583;SDS011;70321;43.592;1.456;2023-09-18T09:46:22;7.20;;;2.90;;
65583;SDS011;70321;43.592;1.456;2023-09-18T09:49:01;7.17;;;3.07;;
65583;SDS011;70321;43.592;1.456;2023-09-18T09:51:30;8.57;;;2.92;;
65583;SDS011;70321;43.592;1.456;2023-09-18T09:53:57;8.38;;;3.05;;
65583;SDS011;70321;43.592;1.456;2023-09-18T09:56:42;8.23;;;2.83;;
65583;SDS011;70321;43.592;1.456;2023-09-18T09:59:14;11.68;;;2.90;;
65583;SDS011;70321;43.592;1.456;2023-09-18T10:01:41;6.78;;;2.70;;
65583;SDS011;70321;43.592;1.456;2023-09-18T10:04:14;8.15;;;3.10;;
65583;SDS011;70321;43.592;1.456;2023-09-18T10:06:47;5.68;;;2.72;;
65583;SDS011;70321;43.592;1.456;2023-09-18T10:09:22;5.38;;;2.38;;
65583;SDS011;70321;43.592;1.456;2023-09-18T10:11:53;7.03;;;2.53;;
65583;SDS011;70321;43.592;1.456;2023-09-18T10:14:26;4.82;;;2.40;;
65583;SDS011;70321;43.592;1.456;2023-09-18T10:16:59;5.68;;;2.15;;
65583;SDS011;70321;43.592;1.456;2023-09-18T10:22:46;4.45;;;2.03;;
65583;SDS011;70321;43.592;1.456;2023-09-18T10:25:28;4.85;;;2.20;;
65583;SDS011;70321;43.592;1.456;2023-09-18T10:27:57;6.35;;;2.22;;
65583;SDS011;70321;43.592;1.456;2023-09-18T10:32:56;5.93;;;1.83;;
65583;SDS011;70321;43.592;1.456;2023-09-18T10:35:25;5.80;;;2.30;;
65583;SDS011;70321;43.592;1.456;2023-09-18T10:37:53;4.43;;;2.05;;
65583;SDS011;70321;43.592;1.456;2023-09-18T10:40:21;5.97;;;2.63;;
65583;SDS011;70321;43.592;1.456;2023-09-18T10:42:49;7.53;;;2.00;;
65583;SDS011;70321;43.592;1.456;2023-09-18T10:45:18;5.23;;;2.00;;
65583;SDS011;70321;43.592;1.456;2023-09-18T10:47:46;4.90;;;1.67;;
65583;SDS011;70321;43.592;1.456;2023-09-18T10:50:24;5.68;;;1.80;;
65583;SDS011;70321;43.592;1.456;2023-09-18T10:52:52;5.32;;;1.90;;
65583;SDS011;70321;43.592;1.456;2023-09-18T10:55:20;6.15;;;1.98;;
65583;SDS011;70321;43.592;1.456;2023-09-18T10:57:55;5.22;;;1.70;;
65583;SDS011;70321;43.592;1.456;2023-09-18T11:00:27;3.33;;;2.00;;
65583;SDS011;70321;43.592;1.456;2023-09-18T11:06:08;5.75;;;1.55;;
65583;SDS011;70321;43.592;1.456;2023-09-18T11:08:46;4.43;;;1.80;;
65583;SDS011;70321;43.592;1.456;2023-09-18T11:11:13;4.28;;;1.80;;
65583;SDS011;70321;43.592;1.456;2023-09-18T11:13:55;3.25;;;1.70;;
65583;SDS011;70321;43.592;1.456;2023-09-18T11:18:53;4.85;;;1.52;;
65583;SDS011;70321;43.592;1.456;2023-09-18T11:21:23;4.45;;;1.60;;
65583;SDS011;70321;43.592;1.456;2023-09-18T11:24:01;4.35;;;1.55;;
65583;SDS011;70321;43.592;1.456;2023-09-18T11:26:42;2.78;;;1.23;;
65583;SDS011;70321;43.592;1.456;2023-09-18T11:29:11;2.17;;;1.30;;
65583;SDS011;70321;43.592;1.456;2023-09-18T11:31:43;2.35;;;1.33;;
65583;SDS011;70321;43.592;1.456;2023-09-18T11:34:29;2.10;;;1.40;;
65583;SDS011;70321;43.592;1.456;2023-09-18T11:37:18;2.75;;;1.00;;
65583;SDS011;70321;43.592;1.456;2023-09-18T11:39:46;2.60;;;1.38;;
65583;SDS011;70321;43.592;1.456;2023-09-18T11:42:13;2.33;;;1.20;;
65583;SDS011;70321;43.592;1.456;2023-09-18T11:44:43;5.35;;;1.63;;
65583;SDS011;70321;43.592;1.456;2023-09-18T11:47:17;5.15;;;1.48;;
65583;SDS011;70321;43.592;1.456;2023-09-18T11:49:49;2.30;;;1.30;;
65583;SDS011;70321;43.592;1.456;2023-09-18T11:52:21;2.63;;;1.20;;
65583;SDS011;70321;43.592;1.456;2023-09-18T11:54:52;3.45;;;1.20;;
65583;SDS011;70321;43.592;1.456;2023-09-18T11:57:21;1.77;;;1.13;;
65583;SDS011;70321;43.592;1.456;2023-09-18T11:59:48;3.72;;;1.50;;
65583;SDS011;70321;43.592;1.456;2023-09-18T12:02:26;4.82;;;1.50;;
65583;SDS011;70321;43.592;1.456;2023-09-18T12:05:09;2.88;;;1.40;;
65583;SDS011;70321;43.592;1.456;2023-09-18T12:07:38;1.77;;;1.13;;
65583;SDS011;70321;43.592;1.456;2023-09-18T12:10:05;3.15;;;1.27;;
65583;SDS011;70321;43.592;1.456;2023-09-18T12:12:35;4.55;;;1.55;;
65583;SDS011;70321;43.592;1.456;2023-09-18T12:15:02;3.00;;;1.58;;
65583;SDS011;70321;43.592;1.456;2023-09-18T12:17:29;2.40;;;1.30;;
65583;SDS011;70321;43.592;1.456;2023-09-18T12:19:56;3.58;;;1.13;;
65583;SDS011;70321;43.592;1.456;2023-09-18T12:22:26;2.53;;;1.40;;
65583;SDS011;70321;43.592;1.456;2023-09-18T12:25:07;2.75;;;1.10;;
65583;SDS011;70321;43.592;1.456;2023-09-18T12:27:42;3.53;;;1.10;;
65583;SDS011;70321;43.592;1.456;2023-09-18T12:30:10;2.08;;;1.13;;
65583;SDS011;70321;43.592;1.456;2023-09-18T12:32:38;2.47;;;1.17;;
65583;SDS011;70321;43.592;1.456;2023-09-18T12:35:06;4.25;;;1.27;;
65583;SDS011;70321;43.592;1.456;2023-09-18T12:37:38;3.45;;;1.50;;
65583;SDS011;70321;43.592;1.456;2023-09-18T12:40:25;3.35;;;1.60;;
65583;SDS011;70321;43.592;1.456;2023-09-18T12:42:56;5.00;;;1.45;;
65583;SDS011;70321;43.592;1.456;2023-09-18T12:45:24;3.45;;;1.40;;
65583;SDS011;70321;43.592;1.456;2023-09-18T12:47:54;3.38;;;1.40;;
65583;SDS011;70321;43.592;1.456;2023-09-18T12:50:22;3.75;;;1.60;;
65583;SDS011;70321;43.592;1.456;2023-09-18T12:52:49;3.40;;;1.10;;
65583;SDS011;70321;43.592;1.456;2023-09-18T12:55:22;2.63;;;1.20;;
65583;SDS011;70321;43.592;1.456;2023-09-18T12:57:53;6.65;;;1.88;;
65583;SDS011;70321;43.592;1.456;2023-09-18T13:00:21;3.30;;;1.65;;
65583;SDS011;70321;43.592;1.456;2023-09-18T13:02:49;3.78;;;1.73;;
65583;SDS011;70321;43.592;1.456;2023-09-18T13:05:22;4.95;;;1.80;;
65583;SDS011;70321;43.592;1.456;2023-09-18T13:07:53;3.35;;;1.52;;
65583;SDS011;70321;43.592;1.456;2023-09-18T13:10:20;2.45;;;1.50;;
65583;SDS011;70321;43.592;1.456;2023-09-18T13:12:52;5.65;;;1.52;;
65583;SDS011;70321;43.592;1.456;2023-09-18T13:15:28;3.90;;;1.70;;
65583;SDS011;70321;43.592;1.456;2023-09-18T13:17:57;2.58;;;1.50;;
65583;SDS011;70321;43.592;1.456;2023-09-18T13:20:26;3.77;;;1.67;;
65583;SDS011;70321;43.592;1.456;2023-09-18T13:22:57;3.78;;;1.40;;
65583;SDS011;70321;43.592;1.456;2023-09-18T13:25:31;4.65;;;2.08;;
65583;SDS011;70321;43.592;1.456;2023-09-18T13:28:11;3.60;;;1.83;;
65583;SDS011;70321;43.592;1.456;2023-09-18T13:30:39;3.08;;;1.50;;
65583;SDS011;70321;43.592;1.456;2023-09-18T13:33:09;2.55;;;1.55;;
65583;SDS011;70321;43.592;1.456;2023-09-18T13:35:37;4.82;;;1.58;;
65583;SDS011;70321;43.592;1.456;2023-09-18T13:38:06;4.45;;;1.60;;
65583;SDS011;70321;43.592;1.456;2023-09-18T13:40:44;3.25;;;1.20;;
65583;SDS011;70321;43.592;1.456;2023-09-18T13:43:13;2.77;;;1.40;;
65583;SDS011;70321;43.592;1.456;2023-09-18T13:45:44;2.08;;;1.15;;
65583;SDS011;70321;43.592;1.456;2023-09-18T13:48:12;1.98;;;1.20;;
65583;SDS011;70321;43.592;1.456;2023-09-18T13:50:39;2.05;;;1.05;;
65583;SDS011;70321;43.592;1.456;2023-09-18T13:53:05;2.83;;;1.05;;
65583;SDS011;70321;43.592;1.456;2023-09-18T13:55:33;1.50;;;0.88;;
65583;SDS011;70321;43.592;1.456;2023-09-18T13:58:01;1.83;;;1.00;;
65583;SDS011;70321;43.592;1.456;2023-09-18T14:00:31;3.33;;;0.95;;
65583;SDS011;70321;43.592;1.456;2023-09-18T14:02:58;3.30;;;1.20;;
65583;SDS011;70321;43.592;1.456;2023-09-18T14:05:26;2.78;;;1.30;;
65583;SDS011;70321;43.592;1.456;2023-09-18T14:07:55;2.10;;;1.08;;
65583;SDS011;70321;43.592;1.456;2023-09-18T14:10:27;1.85;;;1.08;;
65583;SDS011;70321;43.592;1.456;2023-09-18T14:12:54;2.53;;;1.05;;
65583;SDS011;70321;43.592;1.456;2023-09-18T14:15:21;1.83;;;1.10;;
65583;SDS011;70321;43.592;1.456;2023-09-18T14:17:48;2.97;;;1.33;;
65583;SDS011;70321;43.592;1.456;2023-09-18T14:20:15;5.00;;;1.30;;
65583;SDS011;70321;43.592;1.456;2023-09-18T14:22:45;3.75;;;1.15;;
65583;SDS011;70321;43.592;1.456;2023-09-18T14:25:16;5.45;;;1.30;;
65583;SDS011;70321;43.592;1.456;2023-09-18T14:27:43;3.25;;;1.00;;
65583;SDS011;70321;43.592;1.456;2023-09-18T14:30:11;2.05;;;1.02;;
65583;SDS011;70321;43.592;1.456;2023-09-18T14:32:39;2.00;;;0.90;;
65583;SDS011;70321;43.592;1.456;2023-09-18T14:35:06;3.33;;;0.93;;
65583;SDS011;70321;43.592;1.456;2023-09-18T14:37:36;3.08;;;1.35;;
65583;SDS011;70321;43.592;1.456;2023-09-18T14:40:04;2.10;;;0.90;;
65583;SDS011;70321;43.592;1.456;2023-09-18T14:42:31;2.20;;;1.00;;
65583;SDS011;70321;43.592;1.456;2023-09-18T14:44:59;1.98;;;1.00;;
65583;SDS011;70321;43.592;1.456;2023-09-18T14:47:28;1.75;;;0.80;;
65583;SDS011;70321;43.592;1.456;2023-09-18T14:49:55;2.90;;;0.60;;
65583;SDS011;70321;43.592;1.456;2023-09-18T14:52:22;1.15;;;0.63;;
65583;SDS011;70321;43.592;1.456;2023-09-18T14:54:52;1.00;;;0.60;;
65583;SDS011;70321;43.592;1.456;2023-09-18T14:57:18;0.98;;;0.50;;
65583;SDS011;70321;43.592;1.456;2023-09-18T14:59:45;4.57;;;0.63;;
65583;SDS011;70321;43.592;1.456;2023-09-18T15:02:14;0.90;;;0.60;;
65583;SDS011;70321;43.592;1.456;2023-09-18T15:04:42;1.30;;;0.60;;
65583;SDS011;70321;43.592;1.456;2023-09-18T15:07:09;0.45;;;0.30;;
65583;SDS011;70321;43.592;1.456;2023-09-18T15:09:37;1.40;;;0.57;;
65583;SDS011;70321;43.592;1.456;2023-09-18T15:12:04;0.82;;;0.55;;
65583;SDS011;70321;43.592;1.456;2023-09-18T15:14:35;1.08;;;0.60;;
65583;SDS011;70321;43.592;1.456;2023-09-18T15:17:02;1.75;;;0.68;;